Time;durP1;ratioP1;P1;durP2;ratioP2;P2;SDS_P1;SDS_P2;PMS_P1;PMS_P2;Temp;Humidity;BMP_temperature;BMP_pressure;BME280_temperature;BME280_humidity;BME280_pressure;Samples;Min_cycle;Max_cycle;Signal;HPM_P1;HPM_P2
2023/06/02 00:01:09;;;;;;;21.63;5.40;;;;;;;15.95;68.29;100032.14;1416965;92;21442;-79
2023/06/02 00:03:37;;;;;;;10.93;5.07;;;;;;;15.89;68.95;100030.75;1415366;92;21753;-81
2023/06/02 00:06:08;;;;;;;9.57;4.67;;;;;;;15.81;68.87;100017.54;1408963;92;21592;-80
2023/06/02 00:08:38;;;;;;;7.70;4.43;;;;;;;15.75;69.25;100027.13;1457434;89;21434;-80
2023/06/02 00:11:06;;;;;;;9.03;5.07;;;;;;;15.70;70.30;100022.36;1450797;88;21597;-79
2023/06/02 00:13:32;;;;;;;12.20;5.83;;;;;;;15.64;70.15;100013.75;1453557;89;21664;-80
2023/06/02 00:16:00;;;;;;;11.00;4.47;;;;;;;15.63;70.58;100014.78;1414029;91;21497;-80
2023/06/02 00:18:27;;;;;;;9.60;5.57;;;;;;;15.62;70.60;100014.45;1450875;90;21383;-80
2023/06/02 00:20:56;;;;;;;10.50;4.37;;;;;;;15.61;70.79;100015.47;1447887;89;21485;-80
2023/06/02 00:23:23;;;;;;;11.73;4.43;;;;;;;15.60;70.63;100021.02;1445899;90;21516;-80
2023/06/02 00:25:49;;;;;;;13.27;4.33;;;;;;;15.56;70.68;100021.39;1451308;90;22529;-80
2023/06/02 00:28:16;;;;;;;8.63;4.67;;;;;;;15.49;70.51;100017.00;1449958;90;21464;-80
2023/06/02 00:30:42;;;;;;;6.97;4.30;;;;;;;15.47;70.79;100015.02;1448581;90;21585;-81
2023/06/02 00:33:08;;;;;;;10.53;4.73;;;;;;;15.47;71.24;100008.35;1451173;89;21472;-80
2023/06/02 00:35:35;;;;;;;5.53;4.10;;;;;;;15.45;71.13;100013.89;1452463;90;21593;-79
2023/06/02 00:38:04;;;;;;;9.77;4.37;;;;;;;15.44;71.71;100011.40;1445085;90;21485;-80
2023/06/02 00:40:29;;;;;;;13.67;5.13;;;;;;;15.43;71.70;100004.42;1448452;89;21656;-80
2023/06/02 00:43:02;;;;;;;7.13;4.27;;;;;;;15.47;71.62;100008.35;1452567;90;21515;-79
2023/06/02 00:45:29;;;;;;;11.13;4.93;;;;;;;15.50;71.50;100005.30;1452261;89;23196;-80
2023/06/02 00:47:56;;;;;;;14.20;4.93;;;;;;;15.51;71.43;100003.80;1446266;90;21605;-80
2023/06/02 00:50:25;;;;;;;7.60;5.00;;;;;;;15.50;71.43;100002.64;1452212;89;22449;-81
2023/06/02 00:52:55;;;;;;;11.73;4.77;;;;;;;15.50;71.11;99991.97;1424558;91;22384;-80
2023/06/02 00:55:21;;;;;;;9.05;5.00;;;;;;;15.49;70.85;100001.00;1449820;89;22883;-79
2023/06/02 00:57:51;;;;;;;7.73;4.63;;;;;;;15.49;70.82;99994.33;1453810;89;21553;-80
2023/06/02 01:00:16;;;;;;;9.80;4.90;;;;;;;15.47;70.93;100000.36;1426238;91;21704;-79
2023/06/02 01:02:43;;;;;;;8.50;4.83;;;;;;;15.44;71.05;99996.73;1439997;89;21574;-79
2023/06/02 01:05:12;;;;;;;8.10;4.43;;;;;;;15.45;71.20;99998.38;1446831;89;21426;-78
2023/06/02 01:07:44;;;;;;;8.40;5.10;;;;;;;15.49;71.08;100003.66;1430228;91;21503;-78
2023/06/02 01:10:12;;;;;;;8.10;4.53;;;;;;;15.49;71.20;99995.15;1454143;88;22430;-79
2023/06/02 01:12:38;;;;;;;7.80;4.10;;;;;;;15.50;71.09;99995.97;1453099;89;21464;-78
2023/06/02 01:15:07;;;;;;;14.03;4.67;;;;;;;15.51;70.86;99997.64;1453549;89;22344;-78
2023/06/02 01:17:35;;;;;;;10.13;4.77;;;;;;;15.51;70.69;99990.46;1436887;91;22390;-78
2023/06/02 01:20:08;;;;;;;13.00;4.80;;;;;;;15.50;70.56;99990.64;1441301;89;21463;-79
2023/06/02 01:23:10;;;;;;;16.03;5.20;;;;;;;15.49;70.42;99993.00;1454570;89;22416;-79
2023/06/02 01:25:36;;;;;;;12.07;4.53;;;;;;;15.47;70.53;99988.35;1421734;90;21421;-79
2023/06/02 01:28:06;;;;;;;8.57;4.30;;;;;;;15.45;70.59;99990.38;1404168;91;21456;-79
2023/06/02 01:30:32;;;;;;;7.93;4.67;;;;;;;15.41;70.92;99984.60;1408086;91;22276;-80
2023/06/02 01:33:26;;;;;;;11.00;5.00;;;;;;;15.41;70.87;99983.78;1424946;89;21502;-80
2023/06/02 01:35:54;;;;;;;8.80;4.63;;;;;;;15.41;70.63;99981.94;1431718;91;21697;-80
2023/06/02 01:38:23;;;;;;;10.73;5.67;;;;;;;15.41;70.58;99981.12;1409311;91;21361;-80
2023/06/02 01:40:53;;;;;;;12.33;5.53;;;;;;;15.41;70.45;99982.45;1427125;89;21397;-80
2023/06/02 01:43:19;;;;;;;14.10;5.12;;;;;;;15.39;70.50;99981.80;1415123;91;23647;-80
2023/06/02 01:45:46;;;;;;;10.10;4.80;;;;;;;15.34;70.73;99976.55;1414379;91;21495;-80
2023/06/02 01:48:13;;;;;;;10.77;5.10;;;;;;;15.31;70.83;99979.59;1424670;90;21552;-80
2023/06/02 01:50:40;;;;;;;10.00;4.40;;;;;;;15.32;71.16;99975.08;1427453;91;21502;-80
2023/06/02 01:53:06;;;;;;;10.60;4.60;;;;;;;15.31;71.26;99972.92;1406643;90;21460;-80
2023/06/02 01:55:34;;;;;;;14.27;4.80;;;;;;;15.30;71.48;99979.77;1428528;91;21457;-80
2023/06/02 01:58:00;;;;;;;20.77;5.40;;;;;;;15.30;71.63;99977.92;1404081;91;22495;-81
2023/06/02 02:00:27;;;;;;;11.00;5.00;;;;;;;15.28;71.81;99979.97;1430316;89;22644;-81
2023/06/02 02:02:54;;;;;;;6.70;4.87;;;;;;;15.26;72.17;99976.66;1424662;91;21516;-80
2023/06/02 02:05:20;;;;;;;6.97;5.00;;;;;;;15.24;72.46;99980.02;1422399;90;22400;-80
2023/06/02 02:07:47;;;;;;;7.27;4.87;;;;;;;15.24;72.80;99979.19;1429156;91;21466;-80
2023/06/02 02:10:14;;;;;;;11.90;5.07;;;;;;;15.24;73.69;99976.53;1416644;91;21617;-80
2023/06/02 02:12:41;;;;;;;11.60;5.73;;;;;;;15.26;73.61;99972.66;1430206;91;21461;-80
2023/06/02 02:15:09;;;;;;;15.20;6.67;;;;;;;15.27;74.45;99963.64;1432725;91;21608;-80
2023/06/02 02:17:36;;;;;;;11.03;6.43;;;;;;;15.28;74.61;99967.98;1428180;91;21409;-80
2023/06/02 02:20:05;;;;;;;12.80;5.63;;;;;;;15.31;74.81;99966.77;1433413;91;23010;-80
2023/06/02 02:22:32;;;;;;;10.47;5.20;;;;;;;15.33;75.10;99964.72;1427161;90;22854;-80
2023/06/02 02:24:59;;;;;;;10.50;5.20;;;;;;;15.32;75.48;99966.57;1423065;91;21739;-81
2023/06/02 02:27:26;;;;;;;8.53;5.60;;;;;;;15.34;75.65;99972.55;1421030;91;21444;-79
2023/06/02 02:29:52;;;;;;;19.77;6.83;;;;;;;15.35;76.04;99964.85;1428314;90;22523;-79
2023/06/02 02:32:18;;;;;;;12.50;6.67;;;;;;;15.35;76.17;99964.85;1424694;90;21509;-79
2023/06/02 02:34:46;;;;;;;10.37;5.43;;;;;;;15.33;76.79;99972.72;1422197;91;21444;-80
2023/06/02 02:37:13;;;;;;;11.43;5.53;;;;;;;15.32;76.78;99965.75;1429726;90;21997;-80
2023/06/02 02:39:39;;;;;;;11.30;6.13;;;;;;;15.32;77.11;99964.42;1429533;90;22428;-80
2023/06/02 02:42:07;;;;;;;11.30;6.20;;;;;;;15.32;77.95;99963.91;1429128;90;23064;-79
2023/06/02 02:44:33;;;;;;;15.23;6.67;;;;;;;15.32;79.32;99963.91;1402233;91;22407;-80
2023/06/02 02:47:00;;;;;;;10.70;5.57;;;;;;;15.34;79.26;99962.39;1425614;90;21481;-80
2023/06/02 02:49:29;;;;;;;16.27;5.63;;;;;;;15.34;80.05;99964.55;1426450;90;22468;-80
2023/06/02 02:51:56;;;;;;;12.30;6.20;;;;;;;15.35;80.07;99952.86;1428008;91;21429;-80
2023/06/02 02:54:25;;;;;;;11.80;6.50;;;;;;;15.38;80.88;99961.50;1412717;91;21644;-80
2023/06/02 02:56:52;;;;;;;9.83;6.57;;;;;;;15.39;81.61;99963.14;1423228;91;21443;-80
2023/06/02 02:59:19;;;;;;;11.87;5.93;;;;;;;15.40;82.22;99956.81;1423790;90;21650;-79
2023/06/02 03:01:46;;;;;;;8.60;6.70;;;;;;;15.41;82.93;99953.12;1424983;90;21680;-79
2023/06/02 03:04:34;;;;;;;14.53;7.13;;;;;;;15.42;83.46;99954.76;1426474;91;21503;-79
2023/06/02 03:07:04;;;;;;;13.47;6.83;;;;;;;15.45;83.53;99954.38;1486653;87;21603;-79
2023/06/02 03:09:30;;;;;;;11.28;7.40;;;;;;;15.49;84.82;99955.66;1477313;87;22584;-78
2023/06/02 03:11:57;;;;;;;14.70;6.93;;;;;;;15.48;85.18;99952.69;1470015;87;21441;-78
2023/06/02 03:14:27;;;;;;;12.27;6.73;;;;;;;15.51;85.80;99954.97;1487580;87;21381;-78
2023/06/02 03:16:54;;;;;;;9.80;6.28;;;;;;;15.52;86.07;99957.94;1480544;87;22320;-79
2023/06/02 03:19:24;;;;;;;15.43;7.07;;;;;;;15.55;87.56;99954.38;1466389;89;21463;-78
2023/06/02 03:21:48;;;;;;;15.10;8.53;;;;;;;15.60;87.46;99953.81;1466435;88;21569;-79
2023/06/02 03:24:19;;;;;;;13.57;8.30;;;;;;;15.64;87.65;99956.92;1474930;89;22364;-79
2023/06/02 03:26:46;;;;;;;13.53;8.80;;;;;;;15.69;87.72;99962.03;1467077;89;22214;-79
2023/06/02 03:29:13;;;;;;;15.20;7.47;;;;;;;15.74;88.00;99952.94;1467717;89;21477;-79
2023/06/02 03:31:41;;;;;;;16.10;8.93;;;;;;;15.78;88.86;99950.19;1464563;88;21532;-78
2023/06/02 03:34:07;;;;;;;16.47;9.33;;;;;;;15.85;88.59;99954.23;1465376;89;21477;-78
2023/06/02 03:36:36;;;;;;;11.47;7.50;;;;;;;15.93;88.60;99959.95;1467808;89;23132;-79
2023/06/02 03:39:05;;;;;;;11.67;7.17;;;;;;;15.99;88.39;99959.17;1475809;88;21567;-79
2023/06/02 03:41:33;;;;;;;11.53;6.57;;;;;;;16.06;88.34;99963.25;1465419;88;22387;-79
2023/06/02 03:44:00;;;;;;;13.20;7.43;;;;;;;16.08;88.51;99957.18;1466014;89;21648;-79
2023/06/02 03:46:26;;;;;;;10.60;6.17;;;;;;;16.10;88.29;99957.82;1467276;89;22260;-79
2023/06/02 03:48:53;;;;;;;13.10;7.03;;;;;;;16.14;88.33;99961.25;1451902;88;21389;-79
2023/06/02 03:51:19;;;;;;;10.03;7.10;;;;;;;16.18;88.37;99959.83;1474592;88;21997;-79
2023/06/02 03:53:45;;;;;;;12.57;6.63;;;;;;;16.24;88.42;99960.38;1453831;89;21381;-78
2023/06/02 03:56:12;;;;;;;10.90;6.83;;;;;;;16.29;88.53;99957.13;1473383;89;23027;-78
2023/06/02 03:58:38;;;;;;;9.13;6.03;;;;;;;16.32;88.65;99955.92;1476704;89;22051;-79
2023/06/02 04:01:05;;;;;;;16.87;6.73;;;;;;;16.37;88.55;99960.14;1466030;89;21522;-79
2023/06/02 04:03:36;;;;;;;10.10;6.60;;;;;;;16.43;89.48;99954.03;1463889;89;21514;-79
2023/06/02 04:06:02;;;;;;;;;;;;;;;16.47;88.99;99961.95;1479362;87;22475;-80
2023/06/02 04:08:28;;;;;;;13.10;6.87;;;;;;;16.52;89.44;99962.19;1489908;87;20430;-79
2023/06/02 04:10:55;;;;;;;11.13;6.23;;;;;;;16.54;89.15;99956.64;1498229;87;21484;-79
2023/06/02 04:13:21;;;;;;;8.60;6.00;;;;;;;16.58;88.87;99957.39;1490905;86;21595;-86
2023/06/02 04:15:47;;;;;;;14.67;6.37;;;;;;;16.64;89.19;99963.27;1499173;86;21536;-87
2023/06/02 04:18:13;;;;;;;10.90;6.93;;;;;;;16.70;89.23;99966.48;1490779;87;22276;-86
2023/06/02 04:20:39;;;;;;;9.20;7.10;;;;;;;16.77;88.66;99965.72;1481139;87;23022;-86
2023/06/02 04:23:05;;;;;;;14.83;6.80;;;;;;;16.83;88.51;99966.25;1500665;86;21610;-85
2023/06/02 04:25:32;;;;;;;11.20;7.23;;;;;;;16.89;88.47;99966.81;1497187;87;21509;-85
2023/06/02 04:27:58;;;;;;;15.07;6.53;;;;;;;16.93;87.96;99964.56;1500243;86;21700;-86
2023/06/02 04:30:24;;;;;;;7.87;5.57;;;;;;;16.99;87.67;99967.24;1473896;87;22335;-86
2023/06/02 04:32:51;;;;;;;8.73;6.13;;;;;;;17.05;87.83;99957.08;1489727;86;21484;-84
2023/06/02 04:35:18;;;;;;;8.57;5.50;;;;;;;17.16;87.88;99954.86;1487874;87;21440;-86
2023/06/02 04:37:45;;;;;;;8.23;6.20;;;;;;;17.28;87.59;99952.72;1497767;87;21543;-87
2023/06/02 04:40:14;;;;;;;12.90;6.47;;;;;;;17.41;87.22;99957.80;1479736;87;22345;-87
2023/06/02 04:42:40;;;;;;;9.17;6.57;;;;;;;17.53;86.76;99954.82;1495082;87;22402;-86
2023/06/02 04:45:12;;;;;;;10.67;5.83;;;;;;;17.68;86.36;99958.64;1493601;87;21455;-86
2023/06/02 04:47:40;;;;;;;9.53;6.10;;;;;;;17.79;85.90;99959.39;1490108;87;21447;-86
2023/06/02 04:50:10;;;;;;;12.50;6.40;;;;;;;17.86;85.31;99961.54;1496465;87;21454;-86
2023/06/02 04:52:42;;;;;;;9.65;6.10;;;;;;;17.93;85.17;99973.09;1491145;87;21417;-84
2023/06/02 04:55:11;;;;;;;10.20;6.70;;;;;;;17.98;84.53;99975.97;1492130;87;21595;-86
2023/06/02 04:57:38;;;;;;;12.37;6.93;;;;;;;18.03;84.19;99973.47;1490275;87;21683;-86
2023/06/02 05:00:07;;;;;;;7.83;6.20;;;;;;;18.12;83.88;99973.27;1497149;86;21506;-86
2023/06/02 05:02:34;;;;;;;11.73;6.50;;;;;;;18.20;83.45;99971.71;1490884;86;21572;-86
2023/06/02 05:05:02;;;;;;;12.20;6.73;;;;;;;18.32;82.96;99969.22;1494673;87;21469;-86
2023/06/02 05:07:28;;;;;;;14.13;6.77;;;;;;;18.42;82.77;99966.42;1496395;87;21676;-86
2023/06/02 05:09:54;;;;;;;14.13;5.87;;;;;;;18.53;82.37;99972.99;1493185;87;21433;-86
2023/06/02 05:12:20;;;;;;;10.70;6.53;;;;;;;18.65;82.16;99967.80;1496389;87;22327;-85
2023/06/02 05:14:47;;;;;;;8.60;6.30;;;;;;;18.81;81.99;99970.02;1490780;87;21447;-87
2023/06/02 05:17:14;;;;;;;11.53;7.07;;;;;;;18.94;81.09;99967.29;1489268;87;21403;-86
2023/06/02 05:19:42;;;;;;;21.07;7.10;;;;;;;19.10;80.70;99965.14;1493050;87;21484;-86
2023/06/02 05:22:08;;;;;;;14.13;6.50;;;;;;;19.25;79.67;99975.58;1491394;86;22393;-87
2023/06/02 05:24:35;;;;;;;13.00;6.63;;;;;;;19.34;78.77;99960.89;1489112;87;22497;-86
2023/06/02 05:27:01;;;;;;;12.83;5.53;;;;;;;19.47;78.46;99966.68;1493056;87;21433;-87
2023/06/02 05:29:27;;;;;;;13.60;5.90;;;;;;;19.58;77.93;99962.77;1498307;87;21455;-87
2023/06/02 05:31:53;;;;;;;17.50;6.13;;;;;;;19.71;77.44;99957.02;1486007;87;21359;-87
2023/06/02 05:34:19;;;;;;;20.60;5.70;;;;;;;19.84;76.98;99964.45;1498275;87;21477;-85
2023/06/02 05:36:45;;;;;;;13.13;5.37;;;;;;;19.94;76.38;99965.81;1487375;86;21580;-87
2023/06/02 05:39:12;;;;;;;8.20;5.70;;;;;;;20.04;75.79;99970.19;1498719;87;22194;-86
2023/06/02 05:41:38;;;;;;;18.75;6.80;;;;;;;20.11;74.65;99972.30;1492700;86;21410;-86
2023/06/02 05:44:04;;;;;;;15.28;5.55;;;;;;;20.20;74.70;99967.47;1478199;87;22218;-85
2023/06/02 05:46:30;;;;;;;8.73;5.03;;;;;;;20.30;74.60;99977.16;1497059;86;21443;-86
2023/06/02 05:49:00;;;;;;;13.65;5.85;;;;;;;20.46;74.01;99982.48;1483659;87;21410;-87
2023/06/02 05:51:26;;;;;;;14.47;5.03;;;;;;;20.63;73.46;99985.41;1481393;87;21484;-86
2023/06/02 05:53:53;;;;;;;14.20;5.47;;;;;;;20.77;72.76;99975.33;1493742;86;22335;-86
2023/06/02 05:56:19;;;;;;;7.90;5.42;;;;;;;20.86;71.67;99980.20;1494799;87;22401;-87
2023/06/02 05:58:46;;;;;;;9.90;5.65;;;;;;;20.92;70.32;99979.81;1500984;86;21404;-86
2023/06/02 06:01:13;;;;;;;16.40;6.37;;;;;;;20.99;69.86;99974.34;1494846;87;21426;-89
2023/06/02 06:03:39;;;;;;;14.07;5.92;;;;;;;21.08;68.69;99979.17;1500660;87;22504;-86
2023/06/02 06:06:05;;;;;;;8.70;5.20;;;;;;;21.14;68.40;99976.91;1488426;87;21492;-85
2023/06/02 06:08:38;;;;;;;23.07;6.70;;;;;;;21.23;68.17;99971.22;1485647;86;21645;-86
2023/06/02 06:11:04;;;;;;;11.35;5.67;;;;;;;21.32;67.89;99973.88;1479335;87;21426;-88
2023/06/02 06:13:31;;;;;;;24.95;6.67;;;;;;;21.44;67.42;99964.02;1503262;87;21588;-86
2023/06/02 06:15:57;;;;;;;15.98;7.35;;;;;;;21.55;66.56;99979.88;1498379;86;21464;-86
2023/06/02 06:18:23;;;;;;;15.25;7.25;;;;;;;21.60;65.74;99975.45;1491828;87;21477;-85
2023/06/02 06:20:50;;;;;;;16.82;9.85;;;;;;;21.63;64.87;99977.67;1489028;86;22332;-87
2023/06/02 06:23:16;;;;;;;30.00;14.90;;;;;;;21.67;64.96;99971.86;1478282;87;21410;-82
2023/06/02 06:25:42;;;;;;;15.18;5.95;;;;;;;21.77;65.13;99972.09;1494638;87;21584;-83
2023/06/02 06:28:08;;;;;;;16.12;6.37;;;;;;;21.86;64.68;99977.42;1478138;87;21448;-81
2023/06/02 06:30:35;;;;;;;10.48;6.42;;;;;;;21.95;64.67;99976.55;1487906;87;22312;-81
2023/06/02 06:33:01;;;;;;;13.90;6.47;;;;;;;22.04;63.72;99977.34;1493274;86;21513;-83
2023/06/02 06:35:27;;;;;;;11.95;6.35;;;;;;;22.11;63.59;99973.70;1490537;86;21609;-83
2023/06/02 06:37:56;;;;;;;12.95;6.28;;;;;;;22.19;63.25;99974.20;1480189;87;22283;-83
2023/06/02 06:40:21;;;;;;;13.93;6.85;;;;;;;22.29;63.14;99972.25;1481682;87;21778;-84
2023/06/02 06:42:47;;;;;;;14.53;6.20;;;;;;;22.39;63.03;99967.09;1492995;87;21476;-83
2023/06/02 06:45:14;;;;;;;12.65;6.60;;;;;;;22.61;62.42;99974.55;1492918;87;21491;-82
2023/06/02 06:47:40;;;;;;;20.92;7.42;;;;;;;22.61;62.42;99974.55;1493941;87;21485;-84
2023/06/02 06:50:07;;;;;;;18.30;6.40;;;;;;;22.63;61.80;99964.36;1493833;87;21904;-83
2023/06/02 06:52:33;;;;;;;14.68;5.65;;;;;;;22.81;61.76;99981.71;1487960;87;21440;-82
2023/06/02 06:55:01;;;;;;;15.13;5.72;;;;;;;22.93;61.19;99977.63;1489923;87;21513;-82
2023/06/02 06:57:32;;;;;;;24.27;7.10;;;;;;;23.09;60.97;99972.05;1491593;87;21551;-82
2023/06/02 06:59:59;;;;;;;14.83;6.67;;;;;;;23.25;59.76;99973.13;1493716;87;21498;-82
2023/06/02 07:02:25;;;;;;;12.82;6.37;;;;;;;23.37;59.97;99977.43;1492251;87;21499;-82
2023/06/02 07:04:51;;;;;;;12.65;6.17;;;;;;;23.49;59.22;99971.15;1479158;87;22320;-83
2023/06/02 07:07:17;;;;;;;19.15;6.17;;;;;;;23.58;58.62;99973.73;1497740;86;21536;-82
2023/06/02 07:09:44;;;;;;;13.53;6.03;;;;;;;23.69;58.50;99969.33;1491456;87;21617;-81
2023/06/02 07:12:10;;;;;;;18.00;5.78;;;;;;;23.80;58.16;99967.92;1491918;87;22378;-82
2023/06/02 07:14:36;;;;;;;14.40;5.90;;;;;;;23.93;58.01;99971.35;1495234;87;21589;-82
2023/06/02 07:17:03;;;;;;;14.45;5.70;;;;;;;23.95;56.66;99965.17;1491743;87;21462;-83
2023/06/02 07:19:29;;;;;;;12.45;5.45;;;;;;;23.98;56.75;99969.55;1493507;86;21402;-84
2023/06/02 07:21:55;;;;;;;14.93;6.45;;;;;;;24.07;56.73;99966.70;1478791;87;21418;-82
2023/06/02 07:24:21;;;;;;;14.65;6.08;;;;;;;24.18;56.49;99964.98;1492217;87;21778;-83
2023/06/02 07:26:49;;;;;;;16.17;6.22;;;;;;;24.24;55.44;99966.69;1492435;87;22220;-83
2023/06/02 07:29:15;;;;;;;56.25;7.47;;;;;;;24.31;55.56;99972.75;1478406;87;22379;-83
2023/06/02 07:31:43;;;;;;;24.70;7.00;;;;;;;24.44;55.20;99965.36;1491472;87;22484;-84
2023/06/02 07:34:11;;;;;;;14.30;5.58;;;;;;;24.53;54.98;99959.27;1489225;87;21628;-82
2023/06/02 07:36:38;;;;;;;11.00;5.72;;;;;;;24.66;55.16;99955.37;1495845;87;21418;-84
2023/06/02 07:39:04;;;;;;;18.73;6.83;;;;;;;24.76;54.11;99963.60;1505995;87;21606;-85
2023/06/02 07:41:31;;;;;;;15.38;6.25;;;;;;;24.86;53.76;99958.86;1493753;87;22366;-84
2023/06/02 07:44:02;;;;;;;7.87;5.15;;;;;;;24.98;53.54;99953.30;1493482;87;21469;-85
2023/06/02 07:46:28;;;;;;;11.15;5.85;;;;;;;25.09;52.97;99956.41;1492939;87;21455;-83
2023/06/02 07:48:54;;;;;;;15.63;6.62;;;;;;;25.20;52.30;99960.89;1492355;87;22268;-84
2023/06/02 07:51:20;;;;;;;15.20;7.58;;;;;;;25.23;52.02;99960.08;1492516;87;21514;-83
2023/06/02 07:53:47;;;;;;;20.17;6.55;;;;;;;25.31;51.77;99956.91;1492168;87;21515;-84
2023/06/02 07:56:14;;;;;;;21.25;6.83;;;;;;;25.37;51.59;99964.81;1478715;87;21426;-83
2023/06/02 07:58:40;;;;;;;17.17;7.15;;;;;;;25.47;51.04;99967.37;1492518;86;21352;-84
2023/06/02 08:01:06;;;;;;;12.28;5.70;;;;;;;25.51;50.58;99964.41;1479514;87;21947;-83
2023/06/02 08:03:34;;;;;;;14.30;6.05;;;;;;;25.55;50.17;99965.00;1487826;87;22586;-85
2023/06/02 08:06:00;;;;;;;16.00;6.60;;;;;;;25.66;49.84;99964.02;1493159;87;21484;-86
2023/06/02 08:08:29;;;;;;;9.28;5.45;;;;;;;25.77;50.29;99968.14;1494893;87;21630;-83
2023/06/02 08:10:56;;;;;;;13.40;5.83;;;;;;;25.81;49.72;99961.16;1477926;87;22291;-85
2023/06/02 08:13:23;;;;;;;10.28;4.97;;;;;;;25.89;49.55;99962.03;1462150;87;21470;-82
2023/06/02 08:15:49;;;;;;;16.57;5.60;;;;;;;26.00;48.58;99961.03;1492658;86;21600;-81
2023/06/02 08:18:16;;;;;;;14.63;5.60;;;;;;;26.09;47.78;99959.45;1490198;87;21418;-85
2023/06/02 08:20:44;;;;;;;14.65;6.00;;;;;;;26.19;46.81;99953.30;1492011;86;21547;-83
2023/06/02 08:23:13;;;;;;;16.60;5.80;;;;;;;26.27;46.52;99955.52;1419072;87;21409;-84
2023/06/02 08:25:40;;;;;;;17.82;6.58;;;;;;;26.28;44.31;99953.61;1411149;88;21441;-84
2023/06/02 08:28:07;;;;;;;9.65;5.20;;;;;;;26.30;45.87;99954.17;1414328;86;21292;-86
2023/06/02 08:30:35;;;;;;;8.28;4.78;;;;;;;26.43;45.90;99959.66;1414938;87;21359;-86
2023/06/02 08:33:03;;;;;;;16.70;5.58;;;;;;;26.55;45.17;99961.64;1562054;87;22143;-87
2023/06/02 08:35:34;;;;;;;10.35;4.78;;;;;;;26.62;44.16;99960.06;1511956;86;21448;-86
2023/06/02 08:38:03;;;;;;;11.73;5.80;;;;;;;26.71;43.93;99963.34;1413152;87;22328;-86
2023/06/02 08:40:39;;;;;;;15.68;5.17;;;;;;;26.87;44.62;99957.41;1411857;87;21403;-88
2023/06/02 08:43:13;;;;;;;8.55;4.78;;;;;;;27.01;42.96;99959.08;1414794;87;21602;-86
2023/06/02 08:45:42;;;;;;;30.17;5.83;;;;;;;27.11;42.71;99961.03;1410823;87;21481;-85
2023/06/02 08:48:15;;;;;;;10.28;4.45;;;;;;;27.18;40.57;99945.30;1580644;87;21338;-83
2023/06/02 08:50:47;;;;;;;12.43;4.42;;;;;;;27.22;39.88;99946.41;1414609;89;22303;-82
2023/06/02 08:53:16;;;;;;;6.70;4.53;;;;;;;27.33;40.51;99945.31;1411712;87;21344;-88
2023/06/02 08:55:45;;;;;;;7.33;4.67;;;;;;;27.48;40.04;99940.98;1415578;87;22239;-89
2023/06/02 08:58:16;;;;;;;9.30;3.90;;;;;;;27.54;39.29;99938.56;1471013;87;21477;-89
2023/06/02 09:00:42;;;;;;;6.92;4.35;;;;;;;27.62;39.26;99942.06;1513494;87;21521;-91
2023/06/02 09:03:16;;;;;;;9.63;4.12;;;;;;;27.64;37.49;99935.27;1492956;86;21469;-93
2023/06/02 09:05:41;;;;;;;12.68;4.25;;;;;;;27.76;39.20;99939.62;1496099;87;21373;-89
2023/06/02 09:08:10;;;;;;;13.43;4.87;;;;;;;27.90;38.51;99933.37;1491026;87;22402;-93
2023/06/02 09:10:40;;;;;;;9.57;3.83;;;;;;;28.06;38.35;99933.36;1564889;87;21322;-90
2023/06/02 09:13:30;;;;;;;14.98;4.75;;;;;;;28.12;37.33;99930.34;1419119;87;21810;-88
2023/06/02 09:16:00;;;;;;;7.30;3.83;;;;;;;28.27;37.43;99924.04;1493486;87;21417;-90
2023/06/02 09:18:28;;;;;;;12.85;3.42;;;;;;;28.43;37.05;99930.84;1491884;86;21649;-90
2023/06/02 09:20:58;;;;;;;6.80;3.77;;;;;;;28.51;35.33;99925.64;1415275;86;21322;-93
2023/06/02 09:23:23;;;;;;;7.10;3.30;;;;;;;28.52;35.03;99927.80;1400056;88;21352;-90
2023/06/02 09:25:51;;;;;;;8.10;3.90;;;;;;;28.53;34.93;99922.62;1481028;87;22026;-92
2023/06/02 09:28:17;;;;;;;7.17;3.33;;;;;;;28.48;34.06;99934.33;1495096;87;21455;-87
2023/06/02 09:30:43;;;;;;;5.70;3.22;;;;;;;28.17;34.45;99929.53;1494705;86;22342;-89
2023/06/02 09:33:14;;;;;;;8.70;4.50;;;;;;;28.27;34.91;99923.23;1480904;87;21403;-91
2023/06/02 09:35:44;;;;;;;5.72;3.50;;;;;;;28.47;35.36;99919.66;1478290;87;21633;-92
2023/06/02 09:38:15;;;;;;;7.67;3.80;;;;;;;28.78;35.38;99921.14;1412280;87;21367;-92
2023/06/02 09:40:43;;;;;;;11.40;4.12;;;;;;;28.92;34.73;99921.89;1516930;87;21433;-91
2023/06/02 09:43:12;;;;;;;8.78;3.40;;;;;;;28.88;32.73;99922.16;1457369;87;21521;-89
2023/06/02 09:46:03;;;;;;;8.80;3.72;;;;;;;28.87;32.66;99920.55;1491584;87;21577;-87
2023/06/02 09:48:30;;;;;;;9.30;3.60;;;;;;;29.10;33.50;99918.52;1492687;87;21447;-87
2023/06/02 09:50:56;;;;;;;9.15;3.52;;;;;;;29.18;32.21;99915.75;1491057;87;21454;-87
2023/06/02 09:53:22;;;;;;;14.10;3.22;;;;;;;29.40;34.13;99906.56;1477725;87;22401;-87
2023/06/02 09:55:50;;;;;;;10.68;4.10;;;;;;;29.59;33.12;99903.96;1493936;87;21514;-86
2023/06/02 09:58:18;;;;;;;5.45;4.03;;;;;;;29.76;33.01;99910.38;1413700;87;21366;-86
2023/06/02 10:00:44;;;;;;;7.03;3.40;;;;;;;29.53;31.26;99902.38;1413987;87;21330;-85
2023/06/02 10:03:11;;;;;;;12.70;3.65;;;;;;;29.04;32.28;99900.59;1428246;86;21461;-86
2023/06/02 10:05:41;;;;;;;10.23;4.20;;;;;;;28.76;33.69;99906.98;1414985;87;21367;-87
2023/06/02 10:08:37;;;;;;;12.00;4.08;;;;;;;28.38;34.21;99910.41;1416721;87;22254;-86
2023/06/02 10:11:25;;;;;;;30.62;4.35;;;;;;;28.01;35.14;99906.17;1415851;87;21479;-86
2023/06/02 10:14:21;;;;;;;7.30;3.58;;;;;;;27.78;35.91;99908.35;1542913;87;21544;-87
2023/06/02 10:17:12;;;;;;;10.15;4.72;;;;;;;27.68;35.43;99901.59;1491809;87;22505;-87
2023/06/02 10:20:03;;;;;;;9.20;4.40;;;;;;;27.59;35.80;99899.12;1490308;87;21551;-87
2023/06/02 10:22:45;;;;;;;9.50;4.58;;;;;;;27.50;35.87;99895.33;1577407;87;21381;-86
2023/06/02 10:25:23;;;;;;;7.08;3.72;;;;;;;27.43;35.52;99886.91;1492758;87;21469;-87
2023/06/02 10:27:50;;;;;;;9.00;4.55;;;;;;;27.34;35.88;99880.40;1494222;87;21462;-88
2023/06/02 10:30:24;;;;;;;10.65;4.00;;;;;;;27.41;36.31;99882.28;1463254;87;21425;-88
2023/06/02 10:32:51;;;;;;;6.03;3.70;;;;;;;27.28;36.24;99877.41;1494521;87;21433;-87
2023/06/02 10:35:18;;;;;;;8.10;4.45;;;;;;;27.18;36.75;99877.40;1495234;86;21601;-84
2023/06/02 10:37:45;;;;;;;10.80;3.80;;;;;;;27.29;36.21;99869.53;1492004;87;22364;-90
2023/06/02 10:40:14;;;;;;;24.52;4.28;;;;;;;27.47;35.53;99868.70;1492719;86;21433;-92
2023/06/02 10:43:11;;;;;;;7.55;3.25;;;;;;;27.60;34.56;99860.00;1496050;87;21521;-92
2023/06/02 10:45:40;;;;;;;10.08;4.08;;;;;;;27.93;34.23;99856.42;1494860;87;21598;-88
2023/06/02 10:48:36;;;;;;;7.73;4.03;;;;;;;28.37;33.51;99851.62;1496478;87;22474;-90
2023/06/02 10:51:04;;;;;;;11.40;4.03;;;;;;;28.68;33.39;99849.03;1490872;87;21447;-90
2023/06/02 10:53:30;;;;;;;8.75;3.77;;;;;;;29.02;32.33;99846.90;1492333;87;21694;-93
2023/06/02 10:55:59;;;;;;;14.25;4.87;;;;;;;29.11;32.27;99841.13;1495730;87;22319;-89
2023/06/02 10:58:32;;;;;;;12.25;3.83;;;;;;;29.19;31.86;99833.72;1493620;87;21580;-91
2023/06/02 11:00:58;;;;;;;12.20;3.80;;;;;;;29.40;32.31;99826.72;1483715;87;22356;-91
2023/06/02 11:03:28;;;;;;;8.53;3.65;;;;;;;29.62;31.38;99837.14;1492178;87;21535;-93
2023/06/02 11:06:15;;;;;;;8.68;4.00;;;;;;;29.73;30.94;99835.16;1418090;87;21352;-90
2023/06/02 11:08:42;;;;;;;7.42;4.10;;;;;;;29.87;30.96;99834.73;1418103;86;21613;-91
2023/06/02 11:11:08;;;;;;;8.58;3.58;;;;;;;29.96;30.52;99835.71;1416996;87;21338;-89
2023/06/02 11:13:56;;;;;;;17.02;3.83;;;;;;;30.10;30.56;99831.17;1456833;86;21800;-90
2023/06/02 11:16:28;;;;;;;9.23;3.42;;;;;;;30.30;30.56;99823.87;1400393;88;21433;-91
2023/06/02 11:18:57;;;;;;;9.20;3.33;;;;;;;30.14;29.87;99822.66;1579827;87;22373;-90
2023/06/02 11:21:24;;;;;;;10.08;3.62;;;;;;;30.01;29.83;99828.84;1420124;86;21455;-91
2023/06/02 11:23:50;;;;;;;7.67;3.50;;;;;;;30.19;29.81;99819.05;1506592;87;22292;-88
2023/06/02 11:26:21;;;;;;;4.92;3.08;;;;;;;30.35;29.81;99820.52;1493072;87;21695;-86
2023/06/02 11:28:47;;;;;;;6.75;2.92;;;;;;;30.45;29.27;99818.19;1491955;87;21565;-91
2023/06/02 11:31:19;;;;;;;8.13;3.12;;;;;;;30.29;29.88;99819.50;1493021;87;21469;-90
2023/06/02 11:33:48;;;;;;;7.97;3.40;;;;;;;30.12;29.73;99818.06;1506886;87;21618;-87